sensor_id;sensor_type;location;lat;lon;timestamp;P1;durP1;ratioP1;P2;durP2;ratioP2
77332;SDS011;66408;51.326;12.070;2023-02-01T00:01:07;5.70;;;1.98;;
77332;SDS011;66408;51.326;12.070;2023-02-01T00:03:34;4.88;;;1.95;;
77332;SDS011;66408;51.326;12.070;2023-02-01T00:06:01;4.00;;;1.50;;
77332;SDS011;66408;51.326;12.070;2023-02-01T00:08:28;5.30;;;1.73;;
77332;SDS011;66408;51.326;12.070;2023-02-01T00:10:59;4.18;;;1.83;;
77332;SDS011;66408;51.326;12.070;2023-02-01T00:13:27;3.00;;;1.45;;
77332;SDS011;66408;51.326;12.070;2023-02-01T00:16:01;6.82;;;1.70;;
77332;SDS011;66408;51.326;12.070;2023-02-01T00:18:29;3.50;;;1.80;;
77332;SDS011;66408;51.326;12.070;2023-02-01T00:20:55;3.75;;;1.52;;
77332;SDS011;66408;51.326;12.070;2023-02-01T00:23:22;5.25;;;1.60;;
77332;SDS011;66408;51.326;12.070;2023-02-01T00:25:48;6.80;;;2.00;;
77332;SDS011;66408;51.326;12.070;2023-02-01T00:28:14;9.63;;;1.70;;
77332;SDS011;66408;51.326;12.070;2023-02-01T00:30:41;5.88;;;1.63;;
77332;SDS011;66408;51.326;12.070;2023-02-01T00:33:08;5.53;;;1.30;;
77332;SDS011;66408;51.326;12.070;2023-02-01T00:35:34;4.88;;;1.42;;
77332;SDS011;66408;51.326;12.070;2023-02-01T00:38:01;5.45;;;1.25;;
77332;SDS011;66408;51.326;12.070;2023-02-01T00:40:28;4.82;;;2.05;;
77332;SDS011;66408;51.326;12.070;2023-02-01T00:42:54;3.80;;;1.33;;
77332;SDS011;66408;51.326;12.070;2023-02-01T00:45:23;6.57;;;1.58;;
77332;SDS011;66408;51.326;12.070;2023-02-01T00:47:49;5.15;;;1.73;;
77332;SDS011;66408;51.326;12.070;2023-02-01T00:50:16;11.85;;;2.67;;
77332;SDS011;66408;51.326;12.070;2023-02-01T00:52:42;7.63;;;2.60;;
77332;SDS011;66408;51.326;12.070;2023-02-01T00:55:09;11.63;;;2.97;;
77332;SDS011;66408;51.326;12.070;2023-02-01T00:57:35;7.65;;;3.03;;
77332;SDS011;66408;51.326;12.070;2023-02-01T01:00:01;10.65;;;3.38;;
77332;SDS011;66408;51.326;12.070;2023-02-01T01:02:29;7.65;;;3.08;;
77332;SDS011;66408;51.326;12.070;2023-02-01T01:04:55;10.15;;;3.33;;
77332;SDS011;66408;51.326;12.070;2023-02-01T01:07:22;8.95;;;2.85;;
77332;SDS011;66408;51.326;12.070;2023-02-01T01:09:48;7.95;;;2.67;;
77332;SDS011;66408;51.326;12.070;2023-02-01T01:12:15;8.68;;;2.35;;
77332;SDS011;66408;51.326;12.070;2023-02-01T01:14:41;10.90;;;2.70;;
77332;SDS011;66408;51.326;12.070;2023-02-01T01:17:07;7.60;;;2.80;;
77332;SDS011;66408;51.326;12.070;2023-02-01T01:19:34;10.73;;;3.20;;
77332;SDS011;66408;51.326;12.070;2023-02-01T01:22:00;8.00;;;2.50;;
77332;SDS011;66408;51.326;12.070;2023-02-01T01:24:27;6.93;;;2.25;;
77332;SDS011;66408;51.326;12.070;2023-02-01T01:26:53;10.05;;;2.10;;
77332;SDS011;66408;51.326;12.070;2023-02-01T01:29:20;10.70;;;2.50;;
77332;SDS011;66408;51.326;12.070;2023-02-01T01:31:46;6.05;;;2.40;;
77332;SDS011;66408;51.326;12.070;2023-02-01T01:34:13;5.50;;;1.85;;
77332;SDS011;66408;51.326;12.070;2023-02-01T01:36:39;5.18;;;1.95;;
77332;SDS011;66408;51.326;12.070;2023-02-01T01:39:06;5.40;;;1.92;;
77332;SDS011;66408;51.326;12.070;2023-02-01T01:41:33;6.30;;;2.10;;
77332;SDS011;66408;51.326;12.070;2023-02-01T01:44:01;10.65;;;1.75;;
77332;SDS011;66408;51.326;12.070;2023-02-01T01:46:30;5.05;;;2.40;;
77332;SDS011;66408;51.326;12.070;2023-02-01T01:49:04;8.82;;;2.10;;
77332;SDS011;66408;51.326;12.070;2023-02-01T01:51:36;6.72;;;1.77;;
77332;SDS011;66408;51.326;12.070;2023-02-01T01:54:23;7.47;;;1.73;;
77332;SDS011;66408;51.326;12.070;2023-02-01T01:57:04;8.40;;;2.10;;
77332;SDS011;66408;51.326;12.070;2023-02-01T01:59:36;4.70;;;1.77;;
77332;SDS011;66408;51.326;12.070;2023-02-01T02:02:06;7.32;;;2.15;;
77332;SDS011;66408;51.326;12.070;2023-02-01T02:04:33;6.95;;;2.05;;
77332;SDS011;66408;51.326;12.070;2023-02-01T02:07:01;7.53;;;2.15;;
77332;SDS011;66408;51.326;12.070;2023-02-01T02:09:30;6.47;;;2.45;;
77332;SDS011;66408;51.326;12.070;2023-02-01T02:11:57;6.70;;;2.00;;
77332;SDS011;66408;51.326;12.070;2023-02-01T02:14:24;9.68;;;2.42;;
77332;SDS011;66408;51.326;12.070;2023-02-01T02:25:15;7.60;;;2.08;;
77332;SDS011;66408;51.326;12.070;2023-02-01T02:30:41;5.72;;;1.90;;
77332;SDS011;66408;51.326;12.070;2023-02-01T02:41:15;6.28;;;1.50;;
77332;SDS011;66408;51.326;12.070;2023-02-01T02:44:08;9.70;;;2.15;;
77332;SDS011;66408;51.326;12.070;2023-02-01T02:47:00;8.27;;;1.80;;
77332;SDS011;66408;51.326;12.070;2023-02-01T02:49:58;5.15;;;1.80;;
77332;SDS011;66408;51.326;12.070;2023-02-01T02:52:48;6.22;;;1.63;;
77332;SDS011;66408;51.326;12.070;2023-02-01T02:55:42;4.63;;;1.70;;
77332;SDS011;66408;51.326;12.070;2023-02-01T02:58:10;9.68;;;1.70;;
77332;SDS011;66408;51.326;12.070;2023-02-01T03:00:57;6.65;;;1.70;;
77332;SDS011;66408;51.326;12.070;2023-02-01T03:03:42;5.30;;;2.28;;
77332;SDS011;66408;51.326;12.070;2023-02-01T03:09:30;8.13;;;2.45;;
77332;SDS011;66408;51.326;12.070;2023-02-01T03:12:01;10.77;;;3.05;;
77332;SDS011;66408;51.326;12.070;2023-02-01T03:14:55;10.10;;;2.80;;
77332;SDS011;66408;51.326;12.070;2023-02-01T03:17:29;11.50;;;2.40;;
77332;SDS011;66408;51.326;12.070;2023-02-01T03:20:01;12.23;;;2.53;;
77332;SDS011;66408;51.326;12.070;2023-02-01T03:22:29;7.30;;;2.15;;
77332;SDS011;66408;51.326;12.070;2023-02-01T03:25:05;5.35;;;1.83;;
77332;SDS011;66408;51.326;12.070;2023-02-01T03:27:40;5.15;;;1.67;;
77332;SDS011;66408;51.326;12.070;2023-02-01T03:30:20;7.55;;;1.95;;
77332;SDS011;66408;51.326;12.070;2023-02-01T03:32:48;11.20;;;1.98;;
77332;SDS011;66408;51.326;12.070;2023-02-01T03:41:02;5.38;;;1.83;;
77332;SDS011;66408;51.326;12.070;2023-02-01T03:49:55;8.55;;;1.52;;
77332;SDS011;66408;51.326;12.070;2023-02-01T03:52:28;6.97;;;1.80;;
77332;SDS011;66408;51.326;12.070;2023-02-01T03:55:01;8.75;;;1.83;;
77332;SDS011;66408;51.326;12.070;2023-02-01T03:57:32;7.20;;;2.05;;
77332;SDS011;66408;51.326;12.070;2023-02-01T04:04:58;6.85;;;2.10;;
77332;SDS011;66408;51.326;12.070;2023-02-01T04:07:24;8.77;;;1.92;;
77332;SDS011;66408;51.326;12.070;2023-02-01T04:09:50;8.15;;;2.10;;
77332;SDS011;66408;51.326;12.070;2023-02-01T04:12:17;6.38;;;1.73;;
77332;SDS011;66408;51.326;12.070;2023-02-01T04:14:43;12.10;;;2.08;;
77332;SDS011;66408;51.326;12.070;2023-02-01T04:17:10;7.78;;;2.15;;
77332;SDS011;66408;51.326;12.070;2023-02-01T04:19:36;7.03;;;1.50;;
77332;SDS011;66408;51.326;12.070;2023-02-01T04:22:02;12.85;;;1.90;;
77332;SDS011;66408;51.326;12.070;2023-02-01T04:24:29;6.13;;;1.83;;
77332;SDS011;66408;51.326;12.070;2023-02-01T04:26:56;5.70;;;1.60;;
77332;SDS011;66408;51.326;12.070;2023-02-01T04:29:23;13.95;;;2.50;;
77332;SDS011;66408;51.326;12.070;2023-02-01T04:31:51;5.10;;;1.80;;
77332;SDS011;66408;51.326;12.070;2023-02-01T04:34:17;8.27;;;1.92;;
77332;SDS011;66408;51.326;12.070;2023-02-01T04:36:44;10.75;;;1.98;;
77332;SDS011;66408;51.326;12.070;2023-02-01T04:39:12;10.45;;;1.90;;
77332;SDS011;66408;51.326;12.070;2023-02-01T04:41:39;6.70;;;1.70;;
77332;SDS011;66408;51.326;12.070;2023-02-01T04:44:05;7.70;;;1.95;;
77332;SDS011;66408;51.326;12.070;2023-02-01T04:46:32;5.95;;;1.92;;
77332;SDS011;66408;51.326;12.070;2023-02-01T04:48:59;8.95;;;2.10;;
77332;SDS011;66408;51.326;12.070;2023-02-01T04:51:25;6.22;;;1.70;;
77332;SDS011;66408;51.326;12.070;2023-02-01T04:53:51;4.95;;;1.58;;
77332;SDS011;66408;51.326;12.070;2023-02-01T04:56:18;7.13;;;2.08;;
77332;SDS011;66408;51.326;12.070;2023-02-01T04:58:44;11.13;;;2.10;;
77332;SDS011;66408;51.326;12.070;2023-02-01T05:01:11;5.78;;;2.40;;
77332;SDS011;66408;51.326;12.070;2023-02-01T05:03:37;6.03;;;1.65;;
77332;SDS011;66408;51.326;12.070;2023-02-01T05:06:04;8.65;;;2.10;;
77332;SDS011;66408;51.326;12.070;2023-02-01T05:08:31;5.72;;;1.65;;
77332;SDS011;66408;51.326;12.070;2023-02-01T05:10:58;8.95;;;1.88;;
77332;SDS011;66408;51.326;12.070;2023-02-01T05:13:25;8.18;;;1.63;;
77332;SDS011;66408;51.326;12.070;2023-02-01T05:16:10;7.75;;;1.80;;
77332;SDS011;66408;51.326;12.070;2023-02-01T05:18:36;4.97;;;1.50;;
77332;SDS011;66408;51.326;12.070;2023-02-01T05:21:03;8.35;;;1.92;;
77332;SDS011;66408;51.326;12.070;2023-02-01T05:23:29;6.22;;;1.88;;
77332;SDS011;66408;51.326;12.070;2023-02-01T05:25:59;6.57;;;1.88;;
77332;SDS011;66408;51.326;12.070;2023-02-01T05:28:27;11.52;;;2.70;;
77332;SDS011;66408;51.326;12.070;2023-02-01T05:30:54;7.15;;;1.92;;
77332;SDS011;66408;51.326;12.070;2023-02-01T05:33:21;7.18;;;2.30;;
77332;SDS011;66408;51.326;12.070;2023-02-01T05:35:48;9.90;;;1.83;;
77332;SDS011;66408;51.326;12.070;2023-02-01T05:38:16;6.72;;;1.63;;
77332;SDS011;66408;51.326;12.070;2023-02-01T05:40:43;6.20;;;1.55;;
77332;SDS011;66408;51.326;12.070;2023-02-01T05:43:15;6.13;;;1.60;;
77332;SDS011;66408;51.326;12.070;2023-02-01T05:45:42;4.00;;;1.50;;
77332;SDS011;66408;51.326;12.070;2023-02-01T05:48:08;7.03;;;1.98;;
77332;SDS011;66408;51.326;12.070;2023-02-01T05:50:34;7.20;;;1.95;;
77332;SDS011;66408;51.326;12.070;2023-02-01T05:53:01;6.05;;;1.80;;
77332;SDS011;66408;51.326;12.070;2023-02-01T05:55:27;5.07;;;1.60;;
77332;SDS011;66408;51.326;12.070;2023-02-01T05:57:54;6.70;;;1.80;;
77332;SDS011;66408;51.326;12.070;2023-02-01T06:00:20;8.38;;;2.20;;
77332;SDS011;66408;51.326;12.070;2023-02-01T06:02:47;10.02;;;1.73;;
77332;SDS011;66408;51.326;12.070;2023-02-01T06:05:14;11.48;;;2.30;;
77332;SDS011;66408;51.326;12.070;2023-02-01T06:07:41;12.07;;;2.40;;
77332;SDS011;66408;51.326;12.070;2023-02-01T06:10:08;10.32;;;1.83;;
77332;SDS011;66408;51.326;12.070;2023-02-01T06:12:35;10.23;;;2.30;;
77332;SDS011;66408;51.326;12.070;2023-02-01T06:15:02;4.90;;;1.65;;
77332;SDS011;66408;51.326;12.070;2023-02-01T06:17:29;11.82;;;1.88;;
77332;SDS011;66408;51.326;12.070;2023-02-01T06:19:55;7.57;;;1.88;;
77332;SDS011;66408;51.326;12.070;2023-02-01T06:22:22;7.88;;;2.00;;
77332;SDS011;66408;51.326;12.070;2023-02-01T06:24:49;11.43;;;2.10;;
77332;SDS011;66408;51.326;12.070;2023-02-01T06:27:15;7.00;;;1.90;;
77332;SDS011;66408;51.326;12.070;2023-02-01T06:29:42;8.57;;;2.10;;
77332;SDS011;66408;51.326;12.070;2023-02-01T06:32:08;10.57;;;2.80;;
77332;SDS011;66408;51.326;12.070;2023-02-01T06:34:36;7.78;;;2.33;;
77332;SDS011;66408;51.326;12.070;2023-02-01T06:37:03;6.15;;;2.15;;
77332;SDS011;66408;51.326;12.070;2023-02-01T06:39:29;7.40;;;2.17;;
77332;SDS011;66408;51.326;12.070;2023-02-01T06:41:56;5.65;;;1.98;;
77332;SDS011;66408;51.326;12.070;2023-02-01T06:44:22;7.55;;;1.90;;
77332;SDS011;66408;51.326;12.070;2023-02-01T06:46:49;10.60;;;2.10;;
77332;SDS011;66408;51.326;12.070;2023-02-01T06:49:15;12.50;;;2.35;;
77332;SDS011;66408;51.326;12.070;2023-02-01T06:51:42;4.22;;;1.90;;
77332;SDS011;66408;51.326;12.070;2023-02-01T06:54:08;7.15;;;2.42;;
77332;SDS011;66408;51.326;12.070;2023-02-01T06:56:35;4.55;;;2.03;;
77332;SDS011;66408;51.326;12.070;2023-02-01T06:59:05;17.25;;;2.60;;
77332;SDS011;66408;51.326;12.070;2023-02-01T07:01:33;5.95;;;2.17;;
77332;SDS011;66408;51.326;12.070;2023-02-01T07:04:00;9.32;;;2.30;;
77332;SDS011;66408;51.326;12.070;2023-02-01T07:06:26;13.57;;;2.40;;
77332;SDS011;66408;51.326;12.070;2023-02-01T07:08:53;9.82;;;2.47;;
77332;SDS011;66408;51.326;12.070;2023-02-01T07:11:21;7.07;;;2.13;;
77332;SDS011;66408;51.326;12.070;2023-02-01T07:13:48;8.90;;;2.65;;
77332;SDS011;66408;51.326;12.070;2023-02-01T07:16:16;11.65;;;2.25;;
77332;SDS011;66408;51.326;12.070;2023-02-01T07:18:45;7.78;;;1.85;;
77332;SDS011;66408;51.326;12.070;2023-02-01T07:21:13;5.00;;;2.00;;
77332;SDS011;66408;51.326;12.070;2023-02-01T07:23:39;6.72;;;1.98;;
77332;SDS011;66408;51.326;12.070;2023-02-01T07:26:07;4.00;;;1.38;;
77332;SDS011;66408;51.326;12.070;2023-02-01T07:28:36;6.85;;;2.10;;
77332;SDS011;66408;51.326;12.070;2023-02-01T07:31:37;7.90;;;2.13;;
77332;SDS011;66408;51.326;12.070;2023-02-01T07:33:56;8.93;;;1.50;;
77332;SDS011;66408;51.326;12.070;2023-02-01T07:36:24;6.05;;;1.73;;
77332;SDS011;66408;51.326;12.070;2023-02-01T07:38:51;6.93;;;2.00;;
77332;SDS011;66408;51.326;12.070;2023-02-01T07:41:21;10.23;;;2.05;;
77332;SDS011;66408;51.326;12.070;2023-02-01T07:43:48;8.70;;;2.22;;
77332;SDS011;66408;51.326;12.070;2023-02-01T07:46:16;6.20;;;1.90;;
77332;SDS011;66408;51.326;12.070;2023-02-01T07:48:44;5.40;;;1.75;;
77332;SDS011;66408;51.326;12.070;2023-02-01T07:51:12;9.88;;;1.92;;
77332;SDS011;66408;51.326;12.070;2023-02-01T07:53:40;5.82;;;1.98;;
77332;SDS011;66408;51.326;12.070;2023-02-01T07:56:14;3.83;;;1.55;;
77332;SDS011;66408;51.326;12.070;2023-02-01T07:58:42;6.93;;;1.90;;
77332;SDS011;66408;51.326;12.070;2023-02-01T08:01:13;7.10;;;2.15;;
77332;SDS011;66408;51.326;12.070;2023-02-01T08:03:53;10.98;;;1.77;;
77332;SDS011;66408;51.326;12.070;2023-02-01T08:06:22;10.65;;;2.65;;
77332;SDS011;66408;51.326;12.070;2023-02-01T08:08:50;6.35;;;1.63;;
77332;SDS011;66408;51.326;12.070;2023-02-01T08:11:16;9.20;;;1.90;;
77332;SDS011;66408;51.326;12.070;2023-02-01T08:13:44;11.68;;;1.90;;
77332;SDS011;66408;51.326;12.070;2023-02-01T08:16:11;5.18;;;1.60;;
77332;SDS011;66408;51.326;12.070;2023-02-01T08:18:39;5.13;;;1.38;;
77332;SDS011;66408;51.326;12.070;2023-02-01T08:21:14;6.88;;;1.60;;
77332;SDS011;66408;51.326;12.070;2023-02-01T08:23:51;7.03;;;1.50;;
77332;SDS011;66408;51.326;12.070;2023-02-01T08:26:22;6.07;;;1.50;;
77332;SDS011;66408;51.326;12.070;2023-02-01T08:29:00;4.93;;;1.63;;
77332;SDS011;66408;51.326;12.070;2023-02-01T08:31:29;6.40;;;1.67;;
77332;SDS011;66408;51.326;12.070;2023-02-01T08:33:58;4.57;;;1.50;;
77332;SDS011;66408;51.326;12.070;2023-02-01T08:36:28;6.25;;;1.60;;
77332;SDS011;66408;51.326;12.070;2023-02-01T08:38:55;7.57;;;1.67;;
77332;SDS011;66408;51.326;12.070;2023-02-01T08:41:23;4.22;;;1.45;;
77332;SDS011;66408;51.326;12.070;2023-02-01T08:43:51;6.55;;;2.05;;
77332;SDS011;66408;51.326;12.070;2023-02-01T08:46:20;6.13;;;1.77;;
77332;SDS011;66408;51.326;12.070;2023-02-01T08:48:47;4.80;;;1.70;;
77332;SDS011;66408;51.326;12.070;2023-02-01T08:51:16;9.00;;;1.67;;
77332;SDS011;66408;51.326;12.070;2023-02-01T08:53:44;4.20;;;1.70;;
77332;SDS011;66408;51.326;12.070;2023-02-01T08:56:11;5.88;;;1.63;;
77332;SDS011;66408;51.326;12.070;2023-02-01T08:58:39;3.25;;;1.73;;
77332;SDS011;66408;51.326;12.070;2023-02-01T09:01:07;5.68;;;1.80;;
77332;SDS011;66408;51.326;12.070;2023-02-01T09:03:35;5.82;;;1.77;;
77332;SDS011;66408;51.326;12.070;2023-02-01T09:06:03;8.85;;;1.90;;
77332;SDS011;66408;51.326;12.070;2023-02-01T09:08:31;5.03;;;1.70;;
77332;SDS011;66408;51.326;12.070;2023-02-01T09:11:02;7.00;;;2.03;;
77332;SDS011;66408;51.326;12.070;2023-02-01T09:13:31;9.52;;;2.30;;
77332;SDS011;66408;51.326;12.070;2023-02-01T09:15:59;5.80;;;1.90;;
77332;SDS011;66408;51.326;12.070;2023-02-01T09:18:26;7.00;;;2.25;;
77332;SDS011;66408;51.326;12.070;2023-02-01T09:20:53;12.10;;;2.25;;
77332;SDS011;66408;51.326;12.070;2023-02-01T09:23:19;7.07;;;1.92;;
77332;SDS011;66408;51.326;12.070;2023-02-01T09:25:46;5.13;;;1.92;;
77332;SDS011;66408;51.326;12.070;2023-02-01T09:28:16;6.97;;;1.80;;
77332;SDS011;66408;51.326;12.070;2023-02-01T09:30:43;6.25;;;1.65;;
77332;SDS011;66408;51.326;12.070;2023-02-01T09:33:10;6.30;;;1.52;;
77332;SDS011;66408;51.326;12.070;2023-02-01T09:35:37;6.70;;;1.70;;
77332;SDS011;66408;51.326;12.070;2023-02-01T09:38:04;6.72;;;2.08;;
77332;SDS011;66408;51.326;12.070;2023-02-01T09:40:30;8.25;;;2.13;;
77332;SDS011;66408;51.326;12.070;2023-02-01T09:45:36;6.40;;;1.92;;
77332;SDS011;66408;51.326;12.070;2023-02-01T09:48:17;5.93;;;1.90;;
77332;SDS011;66408;51.326;12.070;2023-02-01T09:50:49;6.68;;;2.13;;
77332;SDS011;66408;51.326;12.070;2023-02-01T09:56:12;13.77;;;2.50;;
77332;SDS011;66408;51.326;12.070;2023-02-01T09:58:42;9.68;;;2.10;;
77332;SDS011;66408;51.326;12.070;2023-02-01T10:01:18;7.43;;;2.30;;
77332;SDS011;66408;51.326;12.070;2023-02-01T10:03:48;8.50;;;2.08;;
77332;SDS011;66408;51.326;12.070;2023-02-01T10:09:20;5.68;;;1.83;;
77332;SDS011;66408;51.326;12.070;2023-02-01T10:11:53;7.25;;;2.72;;
77332;SDS011;66408;51.326;12.070;2023-02-01T10:17:04;8.68;;;2.05;;
77332;SDS011;66408;51.326;12.070;2023-02-01T10:22:33;8.10;;;2.10;;
77332;SDS011;66408;51.326;12.070;2023-02-01T10:25:32;9.45;;;2.40;;
77332;SDS011;66408;51.326;12.070;2023-02-01T10:28:19;13.10;;;2.88;;
77332;SDS011;66408;51.326;12.070;2023-02-01T10:30:48;6.20;;;1.88;;
77332;SDS011;66408;51.326;12.070;2023-02-01T10:33:25;11.10;;;1.58;;
77332;SDS011;66408;51.326;12.070;2023-02-01T10:36:16;4.63;;;1.33;;
77332;SDS011;66408;51.326;12.070;2023-02-01T10:38:48;8.38;;;1.58;;
77332;SDS011;66408;51.326;12.070;2023-02-01T10:41:26;4.43;;;1.73;;
77332;SDS011;66408;51.326;12.070;2023-02-01T10:43:59;2.70;;;1.15;;
77332;SDS011;66408;51.326;12.070;2023-02-01T10:46:30;6.95;;;1.52;;
77332;SDS011;66408;51.326;12.070;2023-02-01T10:48:58;8.32;;;1.45;;
77332;SDS011;66408;51.326;12.070;2023-02-01T10:54:11;4.68;;;1.45;;
77332;SDS011;66408;51.326;12.070;2023-02-01T10:56:43;7.03;;;1.80;;
77332;SDS011;66408;51.326;12.070;2023-02-01T10:59:16;5.97;;;1.42;;
77332;SDS011;66408;51.326;12.070;2023-02-01T11:01:47;5.72;;;1.23;;
77332;SDS011;66408;51.326;12.070;2023-02-01T11:04:16;6.45;;;1.40;;
77332;SDS011;66408;51.326;12.070;2023-02-01T11:06:46;5.30;;;1.10;;
77332;SDS011;66408;51.326;12.070;2023-02-01T11:14:19;4.88;;;1.10;;
77332;SDS011;66408;51.326;12.070;2023-02-01T11:16:54;7.13;;;1.25;;
77332;SDS011;66408;51.326;12.070;2023-02-01T11:19:21;8.13;;;1.42;;
77332;SDS011;66408;51.326;12.070;2023-02-01T11:21:49;3.90;;;1.83;;
77332;SDS011;66408;51.326;12.070;2023-02-01T11:26:53;6.63;;;1.50;;
77332;SDS011;66408;51.326;12.070;2023-02-01T11:29:22;4.38;;;1.77;;
77332;SDS011;66408;51.326;12.070;2023-02-01T11:31:56;4.43;;;1.60;;
77332;SDS011;66408;51.326;12.070;2023-02-01T11:34:26;6.20;;;1.80;;
77332;SDS011;66408;51.326;12.070;2023-02-01T11:37:03;8.43;;;2.05;;
77332;SDS011;66408;51.326;12.070;2023-02-01T11:39:31;6.45;;;1.42;;
77332;SDS011;66408;51.326;12.070;2023-02-01T11:42:04;5.10;;;1.58;;
77332;SDS011;66408;51.326;12.070;2023-02-01T11:44:40;6.80;;;1.70;;
77332;SDS011;66408;51.326;12.070;2023-02-01T11:49:55;6.07;;;1.83;;
77332;SDS011;66408;51.326;12.070;2023-02-01T11:52:37;4.93;;;1.50;;
77332;SDS011;66408;51.326;12.070;2023-02-01T11:55:36;4.80;;;1.88;;
77332;SDS011;66408;51.326;12.070;2023-02-01T12:04:21;4.60;;;1.42;;
77332;SDS011;66408;51.326;12.070;2023-02-01T12:24:24;4.70;;;1.33;;
77332;SDS011;66408;51.326;12.070;2023-02-01T12:27:14;4.32;;;1.33;;
77332;SDS011;66408;51.326;12.070;2023-02-01T12:44:00;5.30;;;1.30;;
77332;SDS011;66408;51.326;12.070;2023-02-01T12:46:39;5.80;;;1.33;;
77332;SDS011;66408;51.326;12.070;2023-02-01T12:49:17;5.20;;;1.33;;
77332;SDS011;66408;51.326;12.070;2023-02-01T12:52:06;9.00;;;2.15;;
77332;SDS011;66408;51.326;12.070;2023-02-01T12:54:45;8.32;;;1.10;;
77332;SDS011;66408;51.326;12.070;2023-02-01T12:57:21;4.43;;;1.08;;
77332;SDS011;66408;51.326;12.070;2023-02-01T13:02:31;5.13;;;1.45;;
77332;SDS011;66408;51.326;12.070;2023-02-01T13:05:17;6.45;;;1.40;;
77332;SDS011;66408;51.326;12.070;2023-02-01T13:08:20;6.00;;;1.48;;
77332;SDS011;66408;51.326;12.070;2023-02-01T13:13:28;5.00;;;1.38;;
77332;SDS011;66408;51.326;12.070;2023-02-01T13:16:18;6.85;;;1.35;;
77332;SDS011;66408;51.326;12.070;2023-02-01T13:18:53;3.63;;;1.08;;
77332;SDS011;66408;51.326;12.070;2023-02-01T13:21:27;3.65;;;1.40;;
77332;SDS011;66408;51.326;12.070;2023-02-01T13:23:58;3.38;;;1.10;;
77332;SDS011;66408;51.326;12.070;2023-02-01T13:26:24;4.18;;;1.30;;
77332;SDS011;66408;51.326;12.070;2023-02-01T13:28:52;3.50;;;1.00;;
77332;SDS011;66408;51.326;12.070;2023-02-01T13:40:16;6.78;;;1.33;;
77332;SDS011;66408;51.326;12.070;2023-02-01T13:42:48;8.63;;;1.75;;
77332;SDS011;66408;51.326;12.070;2023-02-01T13:45:19;3.45;;;1.50;;
77332;SDS011;66408;51.326;12.070;2023-02-01T13:47:50;4.45;;;1.63;;
77332;SDS011;66408;51.326;12.070;2023-02-01T13:55:41;4.82;;;1.30;;
77332;SDS011;66408;51.326;12.070;2023-02-01T14:00:48;5.90;;;2.10;;
77332;SDS011;66408;51.326;12.070;2023-02-01T14:03:18;5.30;;;1.30;;
77332;SDS011;66408;51.326;12.070;2023-02-01T14:11:05;6.03;;;1.92;;
77332;SDS011;66408;51.326;12.070;2023-02-01T14:13:33;4.78;;;1.50;;
77332;SDS011;66408;51.326;12.070;2023-02-01T14:21:34;5.93;;;1.58;;
77332;SDS011;66408;51.326;12.070;2023-02-01T14:24:00;5.82;;;1.65;;
77332;SDS011;66408;51.326;12.070;2023-02-01T14:29:01;5.03;;;1.25;;
77332;SDS011;66408;51.326;12.070;2023-02-01T14:34:17;4.53;;;1.40;;
77332;SDS011;66408;51.326;12.070;2023-02-01T14:37:01;8.68;;;1.88;;
77332;SDS011;66408;51.326;12.070;2023-02-01T14:40:19;5.38;;;1.83;;
77332;SDS011;66408;51.326;12.070;2023-02-01T15:06:27;5.68;;;2.00;;
77332;SDS011;66408;51.326;12.070;2023-02-01T15:08:56;6.88;;;1.80;;
77332;SDS011;66408;51.326;12.070;2023-02-01T15:11:26;3.22;;;1.50;;
77332;SDS011;66408;51.326;12.070;2023-02-01T15:13:53;5.40;;;1.63;;
77332;SDS011;66408;51.326;12.070;2023-02-01T15:16:22;5.10;;;1.38;;
77332;SDS011;66408;51.326;12.070;2023-02-01T15:18:50;2.70;;;1.38;;
77332;SDS011;66408;51.326;12.070;2023-02-01T15:21:42;5.63;;;1.65;;
77332;SDS011;66408;51.326;12.070;2023-02-01T15:26:52;7.35;;;1.73;;
77332;SDS011;66408;51.326;12.070;2023-02-01T15:29:20;6.50;;;1.83;;
77332;SDS011;66408;51.326;12.070;2023-02-01T15:31:50;5.10;;;1.73;;
77332;SDS011;66408;51.326;12.070;2023-02-01T15:34:18;4.57;;;1.88;;
77332;SDS011;66408;51.326;12.070;2023-02-01T15:36:46;4.85;;;1.70;;
77332;SDS011;66408;51.326;12.070;2023-02-01T15:39:27;4.80;;;1.25;;
77332;SDS011;66408;51.326;12.070;2023-02-01T15:41:58;4.70;;;1.40;;
77332;SDS011;66408;51.326;12.070;2023-02-01T15:44:34;3.15;;;1.40;;
77332;SDS011;66408;51.326;12.070;2023-02-01T15:47:13;4.07;;;1.33;;
77332;SDS011;66408;51.326;12.070;2023-02-01T15:49:43;3.28;;;1.20;;
77332;SDS011;66408;51.326;12.070;2023-02-01T15:52:21;3.58;;;1.50;;
77332;SDS011;66408;51.326;12.070;2023-02-01T15:54:49;3.95;;;1.40;;
77332;SDS011;66408;51.326;12.070;2023-02-01T15:57:23;2.50;;;0.98;;
77332;SDS011;66408;51.326;12.070;2023-02-01T16:00:00;0.68;;;0.25;;
77332;SDS011;66408;51.326;12.070;2023-02-01T16:02:35;1.70;;;0.45;;
77332;SDS011;66408;51.326;12.070;2023-02-01T16:05:27;2.03;;;0.40;;
77332;SDS011;66408;51.326;12.070;2023-02-01T16:10:44;1.05;;;0.20;;
77332;SDS011;66408;51.326;12.070;2023-02-01T16:13:12;0.30;;;0.30;;
77332;SDS011;66408;51.326;12.070;2023-02-01T16:15:39;0.68;;;0.20;;
77332;SDS011;66408;51.326;12.070;2023-02-01T16:18:07;0.32;;;0.15;;
77332;SDS011;66408;51.326;12.070;2023-02-01T16:20:34;1.00;;;0.17;;
77332;SDS011;66408;51.326;12.070;2023-02-01T16:23:02;0.28;;;0.10;;
77332;SDS011;66408;51.326;12.070;2023-02-01T16:25:29;0.30;;;0.20;;
77332;SDS011;66408;51.326;12.070;2023-02-01T16:27:56;0.35;;;0.17;;
77332;SDS011;66408;51.326;12.070;2023-02-01T16:30:22;0.40;;;0.10;;
77332;SDS011;66408;51.326;12.070;2023-02-01T16:32:54;1.27;;;0.35;;
77332;SDS011;66408;51.326;12.070;2023-02-01T16:35:32;0.52;;;0.20;;
77332;SDS011;66408;51.326;12.070;2023-02-01T16:38:04;2.67;;;0.30;;
77332;SDS011;66408;51.326;12.070;2023-02-01T16:40:34;1.80;;;0.25;;
77332;SDS011;66408;51.326;12.070;2023-02-01T16:43:01;1.60;;;0.30;;
77332;SDS011;66408;51.326;12.070;2023-02-01T16:45:29;0.98;;;0.30;;
77332;SDS011;66408;51.326;12.070;2023-02-01T16:47:56;2.03;;;0.60;;
77332;SDS011;66408;51.326;12.070;2023-02-01T16:50:24;0.73;;;0.28;;
77332;SDS011;66408;51.326;12.070;2023-02-01T16:52:52;0.40;;;0.20;;
77332;SDS011;66408;51.326;12.070;2023-02-01T16:55:20;1.20;;;0.20;;
77332;SDS011;66408;51.326;12.070;2023-02-01T16:57:48;1.48;;;0.30;;
77332;SDS011;66408;51.326;12.070;2023-02-01T17:00:15;2.92;;;0.50;;
77332;SDS011;66408;51.326;12.070;2023-02-01T17:02:50;2.88;;;0.60;;
77332;SDS011;66408;51.326;12.070;2023-02-01T17:05:17;1.90;;;0.57;;
77332;SDS011;66408;51.326;12.070;2023-02-01T17:07:43;0.88;;;0.15;;
77332;SDS011;66408;51.326;12.070;2023-02-01T17:10:18;0.75;;;0.30;;
77332;SDS011;66408;51.326;12.070;2023-02-01T17:12:59;1.73;;;0.30;;
77332;SDS011;66408;51.326;12.070;2023-02-01T17:15:26;0.52;;;0.20;;
77332;SDS011;66408;51.326;12.070;2023-02-01T17:17:57;0.77;;;0.30;;
77332;SDS011;66408;51.326;12.070;2023-02-01T17:20:26;0.88;;;0.40;;
77332;SDS011;66408;51.326;12.070;2023-02-01T17:22:55;2.05;;;0.35;;
77332;SDS011;66408;51.326;12.070;2023-02-01T17:25:21;0.40;;;0.20;;
77332;SDS011;66408;51.326;12.070;2023-02-01T17:27:49;1.23;;;0.22;;
77332;SDS011;66408;51.326;12.070;2023-02-01T17:30:15;0.68;;;0.30;;
77332;SDS011;66408;51.326;12.070;2023-02-01T17:32:43;0.60;;;0.20;;
77332;SDS011;66408;51.326;12.070;2023-02-01T17:35:20;1.30;;;0.30;;
77332;SDS011;66408;51.326;12.070;2023-02-01T17:37:49;1.17;;;0.30;;
77332;SDS011;66408;51.326;12.070;2023-02-01T17:40:17;0.60;;;0.20;;
77332;SDS011;66408;51.326;12.070;2023-02-01T17:42:44;0.88;;;0.40;;
77332;SDS011;66408;51.326;12.070;2023-02-01T17:45:22;0.70;;;0.30;;